sensor_id;sensor_type;location;lat;lon;timestamp;P1;durP1;ratioP1;P2;durP2;ratioP2
16015;SDS011;8112;53.592;10.184;2023-04-26T00:03:40;8.00;;;1.97;;
16015;SDS011;8112;53.592;10.184;2023-04-26T00:08:42;5.27;;;1.93;;
16015;SDS011;8112;53.592;10.184;2023-04-26T00:13:47;4.13;;;1.90;;
16015;SDS011;8112;53.592;10.184;2023-04-26T00:18:50;8.47;;;1.97;;
16015;SDS011;8112;53.592;10.184;2023-04-26T00:23:53;5.70;;;1.77;;
16015;SDS011;8112;53.592;10.184;2023-04-26T00:28:57;3.60;;;1.80;;
16015;SDS011;8112;53.592;10.184;2023-04-26T00:34:00;7.57;;;2.13;;
16015;SDS011;8112;53.592;10.184;2023-04-26T00:39:02;3.13;;;1.73;;
16015;SDS011;8112;53.592;10.184;2023-04-26T00:44:03;8.77;;;2.53;;
16015;SDS011;8112;53.592;10.184;2023-04-26T00:49:07;4.13;;;1.87;;
16015;SDS011;8112;53.592;10.184;2023-04-26T00:54:11;4.80;;;1.97;;
16015;SDS011;8112;53.592;10.184;2023-04-26T00:59:13;3.70;;;1.67;;
16015;SDS011;8112;53.592;10.184;2023-04-26T01:04:17;3.77;;;1.63;;
16015;SDS011;8112;53.592;10.184;2023-04-26T01:09:19;7.20;;;1.80;;
16015;SDS011;8112;53.592;10.184;2023-04-26T01:14:21;3.90;;;1.67;;
16015;SDS011;8112;53.592;10.184;2023-04-26T01:19:24;5.10;;;1.83;;
16015;SDS011;8112;53.592;10.184;2023-04-26T01:24:27;4.17;;;1.40;;
16015;SDS011;8112;53.592;10.184;2023-04-26T01:29:29;3.17;;;1.73;;
16015;SDS011;8112;53.592;10.184;2023-04-26T01:34:32;6.17;;;2.40;;
16015;SDS011;8112;53.592;10.184;2023-04-26T01:39:35;5.43;;;2.00;;
16015;SDS011;8112;53.592;10.184;2023-04-26T01:44:40;3.23;;;1.90;;
16015;SDS011;8112;53.592;10.184;2023-04-26T01:49:41;9.37;;;2.60;;
16015;SDS011;8112;53.592;10.184;2023-04-26T01:54:44;3.97;;;2.30;;
16015;SDS011;8112;53.592;10.184;2023-04-26T01:59:46;5.17;;;2.30;;
16015;SDS011;8112;53.592;10.184;2023-04-26T02:04:48;4.23;;;2.50;;
16015;SDS011;8112;53.592;10.184;2023-04-26T02:09:51;7.13;;;2.40;;
16015;SDS011;8112;53.592;10.184;2023-04-26T02:14:53;5.87;;;2.37;;
16015;SDS011;8112;53.592;10.184;2023-04-26T02:19:54;6.23;;;2.50;;
16015;SDS011;8112;53.592;10.184;2023-04-26T02:24:58;6.33;;;2.17;;
16015;SDS011;8112;53.592;10.184;2023-04-26T02:30:01;4.23;;;2.70;;
16015;SDS011;8112;53.592;10.184;2023-04-26T02:35:03;4.93;;;2.97;;
16015;SDS011;8112;53.592;10.184;2023-04-26T02:40:07;4.93;;;2.53;;
16015;SDS011;8112;53.592;10.184;2023-04-26T02:45:11;4.50;;;2.60;;
16015;SDS011;8112;53.592;10.184;2023-04-26T02:50:13;8.10;;;2.67;;
16015;SDS011;8112;53.592;10.184;2023-04-26T02:55:16;7.50;;;3.27;;
16015;SDS011;8112;53.592;10.184;2023-04-26T03:00:18;5.53;;;3.00;;
16015;SDS011;8112;53.592;10.184;2023-04-26T03:05:20;5.10;;;2.57;;
16015;SDS011;8112;53.592;10.184;2023-04-26T03:10:23;3.90;;;2.23;;
16015;SDS011;8112;53.592;10.184;2023-04-26T03:15:25;5.53;;;2.53;;
16015;SDS011;8112;53.592;10.184;2023-04-26T03:20:26;4.23;;;2.50;;
16015;SDS011;8112;53.592;10.184;2023-04-26T03:25:30;6.57;;;3.13;;
16015;SDS011;8112;53.592;10.184;2023-04-26T03:30:33;2.90;;;2.00;;
16015;SDS011;8112;53.592;10.184;2023-04-26T03:35:35;6.93;;;2.40;;
16015;SDS011;8112;53.592;10.184;2023-04-26T03:40:38;3.97;;;2.60;;
16015;SDS011;8112;53.592;10.184;2023-04-26T03:45:40;5.00;;;2.60;;
16015;SDS011;8112;53.592;10.184;2023-04-26T03:50:42;4.63;;;2.70;;
16015;SDS011;8112;53.592;10.184;2023-04-26T03:55:46;7.47;;;3.30;;
16015;SDS011;8112;53.592;10.184;2023-04-26T04:00:48;4.00;;;2.97;;
16015;SDS011;8112;53.592;10.184;2023-04-26T04:05:50;6.20;;;2.93;;
16015;SDS011;8112;53.592;10.184;2023-04-26T04:10:55;7.40;;;3.10;;
16015;SDS011;8112;53.592;10.184;2023-04-26T04:15:57;7.00;;;3.33;;
16015;SDS011;8112;53.592;10.184;2023-04-26T04:20:58;6.23;;;2.73;;
16015;SDS011;8112;53.592;10.184;2023-04-26T04:26:02;7.10;;;2.80;;
16015;SDS011;8112;53.592;10.184;2023-04-26T04:31:03;10.70;;;3.83;;
16015;SDS011;8112;53.592;10.184;2023-04-26T04:36:08;4.70;;;2.67;;
16015;SDS011;8112;53.592;10.184;2023-04-26T04:41:11;5.90;;;2.97;;
16015;SDS011;8112;53.592;10.184;2023-04-26T04:46:14;5.47;;;2.50;;
16015;SDS011;8112;53.592;10.184;2023-04-26T04:51:15;6.23;;;2.83;;
16015;SDS011;8112;53.592;10.184;2023-04-26T04:56:19;7.83;;;2.97;;
16015;SDS011;8112;53.592;10.184;2023-04-26T05:01:21;9.43;;;3.67;;
16015;SDS011;8112;53.592;10.184;2023-04-26T05:06:27;6.33;;;3.03;;
16015;SDS011;8112;53.592;10.184;2023-04-26T05:11:30;8.03;;;3.37;;
16015;SDS011;8112;53.592;10.184;2023-04-26T05:16:32;7.07;;;3.00;;
16015;SDS011;8112;53.592;10.184;2023-04-26T05:21:36;7.33;;;3.43;;
16015;SDS011;8112;53.592;10.184;2023-04-26T05:26:40;8.50;;;3.50;;
16015;SDS011;8112;53.592;10.184;2023-04-26T05:31:45;7.30;;;2.83;;
16015;SDS011;8112;53.592;10.184;2023-04-26T05:36:56;5.50;;;3.20;;
16015;SDS011;8112;53.592;10.184;2023-04-26T05:41:59;6.67;;;3.10;;
16015;SDS011;8112;53.592;10.184;2023-04-26T05:47:01;6.33;;;3.73;;
16015;SDS011;8112;53.592;10.184;2023-04-26T05:52:04;9.00;;;4.33;;
16015;SDS011;8112;53.592;10.184;2023-04-26T05:57:07;6.27;;;3.90;;
16015;SDS011;8112;53.592;10.184;2023-04-26T06:02:09;8.60;;;3.87;;
16015;SDS011;8112;53.592;10.184;2023-04-26T06:07:12;7.10;;;3.30;;
16015;SDS011;8112;53.592;10.184;2023-04-26T06:12:16;9.13;;;3.90;;
16015;SDS011;8112;53.592;10.184;2023-04-26T06:17:19;6.13;;;3.50;;
16015;SDS011;8112;53.592;10.184;2023-04-26T06:22:22;7.47;;;3.60;;
16015;SDS011;8112;53.592;10.184;2023-04-26T06:27:25;5.53;;;3.17;;
16015;SDS011;8112;53.592;10.184;2023-04-26T06:32:28;6.97;;;3.27;;
16015;SDS011;8112;53.592;10.184;2023-04-26T06:37:30;7.07;;;4.10;;
16015;SDS011;8112;53.592;10.184;2023-04-26T06:42:33;7.87;;;3.60;;
16015;SDS011;8112;53.592;10.184;2023-04-26T06:47:56;6.77;;;3.50;;
16015;SDS011;8112;53.592;10.184;2023-04-26T06:53:00;6.67;;;3.57;;
16015;SDS011;8112;53.592;10.184;2023-04-26T06:58:03;8.73;;;3.37;;
16015;SDS011;8112;53.592;10.184;2023-04-26T07:03:04;7.90;;;3.57;;
16015;SDS011;8112;53.592;10.184;2023-04-26T07:08:06;7.73;;;3.20;;
16015;SDS011;8112;53.592;10.184;2023-04-26T07:13:09;4.40;;;2.80;;
16015;SDS011;8112;53.592;10.184;2023-04-26T07:18:11;5.53;;;3.20;;
16015;SDS011;8112;53.592;10.184;2023-04-26T07:23:12;5.27;;;3.17;;
16015;SDS011;8112;53.592;10.184;2023-04-26T07:28:16;5.70;;;3.17;;
16015;SDS011;8112;53.592;10.184;2023-04-26T07:33:17;6.50;;;2.90;;
16015;SDS011;8112;53.592;10.184;2023-04-26T07:38:19;4.80;;;2.60;;
16015;SDS011;8112;53.592;10.184;2023-04-26T07:43:22;6.80;;;2.80;;
16015;SDS011;8112;53.592;10.184;2023-04-26T07:48:24;8.60;;;2.80;;
16015;SDS011;8112;53.592;10.184;2023-04-26T07:53:26;5.43;;;2.67;;
16015;SDS011;8112;53.592;10.184;2023-04-26T07:58:29;6.33;;;3.10;;
16015;SDS011;8112;53.592;10.184;2023-04-26T08:03:32;7.80;;;2.63;;
16015;SDS011;8112;53.592;10.184;2023-04-26T08:08:34;7.87;;;3.07;;
16015;SDS011;8112;53.592;10.184;2023-04-26T08:13:46;6.90;;;2.67;;
16015;SDS011;8112;53.592;10.184;2023-04-26T08:18:48;7.17;;;2.30;;
16015;SDS011;8112;53.592;10.184;2023-04-26T08:23:50;2.73;;;1.53;;
16015;SDS011;8112;53.592;10.184;2023-04-26T08:28:53;2.83;;;1.40;;
16015;SDS011;8112;53.592;10.184;2023-04-26T08:33:56;2.63;;;1.50;;
16015;SDS011;8112;53.592;10.184;2023-04-26T08:38:58;3.80;;;1.80;;
16015;SDS011;8112;53.592;10.184;2023-04-26T08:44:01;5.00;;;1.80;;
16015;SDS011;8112;53.592;10.184;2023-04-26T08:49:08;5.30;;;1.97;;
16015;SDS011;8112;53.592;10.184;2023-04-26T08:54:20;2.70;;;1.90;;
16015;SDS011;8112;53.592;10.184;2023-04-26T08:59:23;3.17;;;1.97;;
16015;SDS011;8112;53.592;10.184;2023-04-26T09:04:25;4.67;;;2.30;;
16015;SDS011;8112;53.592;10.184;2023-04-26T09:09:27;4.80;;;2.13;;
16015;SDS011;8112;53.592;10.184;2023-04-26T09:14:37;5.90;;;1.83;;
16015;SDS011;8112;53.592;10.184;2023-04-26T09:19:39;2.93;;;2.00;;
16015;SDS011;8112;53.592;10.184;2023-04-26T09:24:45;3.63;;;2.50;;
16015;SDS011;8112;53.592;10.184;2023-04-26T09:30:01;4.07;;;2.27;;
16015;SDS011;8112;53.592;10.184;2023-04-26T09:35:05;5.07;;;2.03;;
16015;SDS011;8112;53.592;10.184;2023-04-26T09:40:08;4.13;;;2.63;;
16015;SDS011;8112;53.592;10.184;2023-04-26T09:45:20;6.30;;;2.47;;
16015;SDS011;8112;53.592;10.184;2023-04-26T09:50:26;4.37;;;2.80;;
16015;SDS011;8112;53.592;10.184;2023-04-26T09:55:30;2.93;;;2.07;;
16015;SDS011;8112;53.592;10.184;2023-04-26T10:00:33;6.93;;;2.33;;
16015;SDS011;8112;53.592;10.184;2023-04-26T10:05:37;3.17;;;1.50;;
16015;SDS011;8112;53.592;10.184;2023-04-26T10:10:39;3.30;;;1.50;;
16015;SDS011;8112;53.592;10.184;2023-04-26T10:15:43;4.30;;;1.40;;
16015;SDS011;8112;53.592;10.184;2023-04-26T10:20:47;2.23;;;1.30;;
16015;SDS011;8112;53.592;10.184;2023-04-26T10:25:52;5.87;;;1.90;;
16015;SDS011;8112;53.592;10.184;2023-04-26T10:30:56;2.67;;;1.80;;
16015;SDS011;8112;53.592;10.184;2023-04-26T10:36:06;2.77;;;1.50;;
16015;SDS011;8112;53.592;10.184;2023-04-26T10:46:37;4.67;;;1.70;;
16015;SDS011;8112;53.592;10.184;2023-04-26T10:51:39;3.47;;;1.30;;
16015;SDS011;8112;53.592;10.184;2023-04-26T10:56:50;3.43;;;1.50;;
16015;SDS011;8112;53.592;10.184;2023-04-26T11:01:54;3.00;;;1.20;;
16015;SDS011;8112;53.592;10.184;2023-04-26T11:07:00;4.63;;;1.47;;
16015;SDS011;8112;53.592;10.184;2023-04-26T11:12:04;6.17;;;1.30;;
16015;SDS011;8112;53.592;10.184;2023-04-26T11:17:08;1.73;;;1.00;;
16015;SDS011;8112;53.592;10.184;2023-04-26T11:22:10;1.27;;;0.80;;
16015;SDS011;8112;53.592;10.184;2023-04-26T11:27:12;3.70;;;1.13;;
16015;SDS011;8112;53.592;10.184;2023-04-26T11:32:16;3.93;;;1.20;;
16015;SDS011;8112;53.592;10.184;2023-04-26T11:37:17;3.10;;;1.20;;
16015;SDS011;8112;53.592;10.184;2023-04-26T11:42:23;4.07;;;1.23;;
16015;SDS011;8112;53.592;10.184;2023-04-26T11:47:27;4.50;;;1.43;;
16015;SDS011;8112;53.592;10.184;2023-04-26T11:52:30;3.97;;;1.13;;
16015;SDS011;8112;53.592;10.184;2023-04-26T11:57:31;2.63;;;1.33;;
16015;SDS011;8112;53.592;10.184;2023-04-26T12:02:35;1.40;;;1.07;;
16015;SDS011;8112;53.592;10.184;2023-04-26T12:07:37;2.70;;;1.00;;
16015;SDS011;8112;53.592;10.184;2023-04-26T12:12:42;2.60;;;1.20;;
16015;SDS011;8112;53.592;10.184;2023-04-26T12:17:53;3.67;;;1.10;;
16015;SDS011;8112;53.592;10.184;2023-04-26T12:23:00;4.20;;;1.13;;
16015;SDS011;8112;53.592;10.184;2023-04-26T12:28:07;4.50;;;0.87;;
16015;SDS011;8112;53.592;10.184;2023-04-26T12:33:12;1.93;;;0.90;;
16015;SDS011;8112;53.592;10.184;2023-04-26T12:38:14;7.57;;;1.30;;
16015;SDS011;8112;53.592;10.184;2023-04-26T12:43:16;2.80;;;0.97;;
16015;SDS011;8112;53.592;10.184;2023-04-26T12:48:20;2.13;;;1.30;;
16015;SDS011;8112;53.592;10.184;2023-04-26T12:53:21;2.87;;;1.30;;
16015;SDS011;8112;53.592;10.184;2023-04-26T12:58:23;4.93;;;1.27;;
16015;SDS011;8112;53.592;10.184;2023-04-26T13:03:26;1.77;;;1.10;;
16015;SDS011;8112;53.592;10.184;2023-04-26T13:08:28;4.60;;;1.10;;
16015;SDS011;8112;53.592;10.184;2023-04-26T13:13:30;2.30;;;1.10;;
16015;SDS011;8112;53.592;10.184;2023-04-26T13:18:33;2.40;;;1.37;;
16015;SDS011;8112;53.592;10.184;2023-04-26T13:23:35;6.20;;;1.30;;
16015;SDS011;8112;53.592;10.184;2023-04-26T13:28:36;2.60;;;1.23;;
16015;SDS011;8112;53.592;10.184;2023-04-26T13:33:40;4.90;;;1.40;;
16015;SDS011;8112;53.592;10.184;2023-04-26T13:38:41;3.00;;;1.40;;
16015;SDS011;8112;53.592;10.184;2023-04-26T13:43:44;3.30;;;1.37;;
16015;SDS011;8112;53.592;10.184;2023-04-26T13:48:47;2.40;;;0.90;;
16015;SDS011;8112;53.592;10.184;2023-04-26T13:53:48;5.07;;;1.07;;
16015;SDS011;8112;53.592;10.184;2023-04-26T13:58:53;5.63;;;1.60;;
16015;SDS011;8112;53.592;10.184;2023-04-26T14:03:56;2.73;;;1.07;;
16015;SDS011;8112;53.592;10.184;2023-04-26T14:08:58;2.37;;;1.20;;
16015;SDS011;8112;53.592;10.184;2023-04-26T14:14:00;3.00;;;1.33;;
16015;SDS011;8112;53.592;10.184;2023-04-26T14:19:03;2.07;;;0.97;;
16015;SDS011;8112;53.592;10.184;2023-04-26T14:24:05;2.03;;;1.17;;
16015;SDS011;8112;53.592;10.184;2023-04-26T14:29:07;4.33;;;1.10;;
16015;SDS011;8112;53.592;10.184;2023-04-26T14:34:10;3.77;;;1.03;;
16015;SDS011;8112;53.592;10.184;2023-04-26T14:39:12;5.03;;;1.13;;
16015;SDS011;8112;53.592;10.184;2023-04-26T14:44:14;3.33;;;1.10;;
16015;SDS011;8112;53.592;10.184;2023-04-26T14:49:17;4.03;;;1.20;;
16015;SDS011;8112;53.592;10.184;2023-04-26T14:54:19;3.00;;;1.27;;
16015;SDS011;8112;53.592;10.184;2023-04-26T14:59:20;2.33;;;1.20;;
16015;SDS011;8112;53.592;10.184;2023-04-26T15:04:23;3.77;;;1.50;;
16015;SDS011;8112;53.592;10.184;2023-04-26T15:09:25;6.47;;;1.80;;
16015;SDS011;8112;53.592;10.184;2023-04-26T15:14:27;4.73;;;1.50;;
16015;SDS011;8112;53.592;10.184;2023-04-26T15:19:30;6.33;;;1.40;;
16015;SDS011;8112;53.592;10.184;2023-04-26T15:24:34;3.83;;;1.47;;
16015;SDS011;8112;53.592;10.184;2023-04-26T15:29:36;3.23;;;1.23;;
16015;SDS011;8112;53.592;10.184;2023-04-26T15:34:39;4.43;;;1.40;;
16015;SDS011;8112;53.592;10.184;2023-04-26T15:39:44;3.00;;;1.27;;
16015;SDS011;8112;53.592;10.184;2023-04-26T15:44:46;4.53;;;1.37;;
16015;SDS011;8112;53.592;10.184;2023-04-26T15:49:50;4.57;;;1.70;;
16015;SDS011;8112;53.592;10.184;2023-04-26T15:54:53;2.33;;;1.20;;
16015;SDS011;8112;53.592;10.184;2023-04-26T15:59:55;3.13;;;1.10;;
16015;SDS011;8112;53.592;10.184;2023-04-26T16:04:59;4.33;;;1.50;;
16015;SDS011;8112;53.592;10.184;2023-04-26T16:10:00;3.50;;;1.43;;
16015;SDS011;8112;53.592;10.184;2023-04-26T16:15:04;3.40;;;1.50;;
16015;SDS011;8112;53.592;10.184;2023-04-26T16:20:09;3.33;;;1.60;;
16015;SDS011;8112;53.592;10.184;2023-04-26T16:25:11;3.27;;;1.40;;
16015;SDS011;8112;53.592;10.184;2023-04-26T16:30:13;4.27;;;1.20;;
16015;SDS011;8112;53.592;10.184;2023-04-26T16:35:16;5.07;;;1.93;;
16015;SDS011;8112;53.592;10.184;2023-04-26T16:40:18;2.37;;;1.60;;
16015;SDS011;8112;53.592;10.184;2023-04-26T16:45:21;6.50;;;1.90;;
16015;SDS011;8112;53.592;10.184;2023-04-26T16:50:24;6.20;;;1.50;;
16015;SDS011;8112;53.592;10.184;2023-04-26T16:55:26;6.23;;;2.00;;
16015;SDS011;8112;53.592;10.184;2023-04-26T17:00:27;4.70;;;2.07;;
16015;SDS011;8112;53.592;10.184;2023-04-26T17:05:31;3.37;;;2.10;;
16015;SDS011;8112;53.592;10.184;2023-04-26T17:10:37;7.40;;;2.07;;
16015;SDS011;8112;53.592;10.184;2023-04-26T17:15:39;7.87;;;2.53;;
16015;SDS011;8112;53.592;10.184;2023-04-26T17:20:50;3.40;;;1.80;;
16015;SDS011;8112;53.592;10.184;2023-04-26T17:25:55;2.73;;;1.40;;
16015;SDS011;8112;53.592;10.184;2023-04-26T17:30:57;2.57;;;1.27;;
16015;SDS011;8112;53.592;10.184;2023-04-26T17:36:01;3.37;;;1.90;;
16015;SDS011;8112;53.592;10.184;2023-04-26T17:41:03;6.43;;;1.90;;
16015;SDS011;8112;53.592;10.184;2023-04-26T17:46:05;5.57;;;1.73;;
16015;SDS011;8112;53.592;10.184;2023-04-26T17:51:09;6.17;;;1.77;;
16015;SDS011;8112;53.592;10.184;2023-04-26T17:56:11;6.90;;;2.10;;
16015;SDS011;8112;53.592;10.184;2023-04-26T18:01:14;3.00;;;1.87;;
16015;SDS011;8112;53.592;10.184;2023-04-26T18:06:21;4.90;;;1.90;;
16015;SDS011;8112;53.592;10.184;2023-04-26T18:11:23;3.90;;;1.90;;
16015;SDS011;8112;53.592;10.184;2023-04-26T18:16:25;2.63;;;1.70;;
16015;SDS011;8112;53.592;10.184;2023-04-26T18:21:30;5.23;;;2.37;;
16015;SDS011;8112;53.592;10.184;2023-04-26T18:26:31;6.50;;;2.77;;
16015;SDS011;8112;53.592;10.184;2023-04-26T18:31:33;6.63;;;1.90;;
16015;SDS011;8112;53.592;10.184;2023-04-26T18:36:36;5.77;;;2.50;;
16015;SDS011;8112;53.592;10.184;2023-04-26T18:41:38;3.50;;;2.20;;
16015;SDS011;8112;53.592;10.184;2023-04-26T18:46:40;4.70;;;2.60;;
16015;SDS011;8112;53.592;10.184;2023-04-26T18:51:44;6.63;;;2.77;;
16015;SDS011;8112;53.592;10.184;2023-04-26T18:56:45;4.80;;;2.53;;
16015;SDS011;8112;53.592;10.184;2023-04-26T19:01:48;6.13;;;2.10;;
16015;SDS011;8112;53.592;10.184;2023-04-26T19:06:51;6.00;;;2.70;;
16015;SDS011;8112;53.592;10.184;2023-04-26T19:11:53;5.13;;;2.17;;
16015;SDS011;8112;53.592;10.184;2023-04-26T19:16:55;4.13;;;2.27;;
16015;SDS011;8112;53.592;10.184;2023-04-26T19:22:01;4.97;;;2.07;;
16015;SDS011;8112;53.592;10.184;2023-04-26T19:27:03;4.70;;;2.67;;
16015;SDS011;8112;53.592;10.184;2023-04-26T19:32:04;5.67;;;2.63;;
16015;SDS011;8112;53.592;10.184;2023-04-26T19:37:08;6.67;;;2.20;;
16015;SDS011;8112;53.592;10.184;2023-04-26T19:42:10;6.43;;;2.63;;
16015;SDS011;8112;53.592;10.184;2023-04-26T19:47:12;5.03;;;2.93;;
16015;SDS011;8112;53.592;10.184;2023-04-26T19:52:16;5.53;;;2.83;;
16015;SDS011;8112;53.592;10.184;2023-04-26T19:57:19;5.87;;;2.20;;
16015;SDS011;8112;53.592;10.184;2023-04-26T20:02:21;8.53;;;3.37;;
16015;SDS011;8112;53.592;10.184;2023-04-26T20:07:24;6.00;;;2.27;;
16015;SDS011;8112;53.592;10.184;2023-04-26T20:12:26;7.10;;;2.90;;
16015;SDS011;8112;53.592;10.184;2023-04-26T20:17:29;4.93;;;2.10;;
16015;SDS011;8112;53.592;10.184;2023-04-26T20:22:34;7.27;;;2.73;;
16015;SDS011;8112;53.592;10.184;2023-04-26T20:27:36;5.23;;;2.87;;
16015;SDS011;8112;53.592;10.184;2023-04-26T20:32:38;8.30;;;3.47;;
16015;SDS011;8112;53.592;10.184;2023-04-26T20:37:42;7.03;;;2.90;;
16015;SDS011;8112;53.592;10.184;2023-04-26T20:42:44;5.33;;;2.50;;
16015;SDS011;8112;53.592;10.184;2023-04-26T20:47:46;7.30;;;2.50;;
16015;SDS011;8112;53.592;10.184;2023-04-26T20:52:53;3.13;;;2.23;;
16015;SDS011;8112;53.592;10.184;2023-04-26T20:57:54;5.70;;;2.50;;
16015;SDS011;8112;53.592;10.184;2023-04-26T21:02:56;8.37;;;2.60;;
16015;SDS011;8112;53.592;10.184;2023-04-26T21:08:00;6.50;;;2.80;;
16015;SDS011;8112;53.592;10.184;2023-04-26T21:13:02;6.37;;;2.93;;
16015;SDS011;8112;53.592;10.184;2023-04-26T21:18:04;5.17;;;2.30;;
16015;SDS011;8112;53.592;10.184;2023-04-26T21:23:08;2.97;;;2.60;;
16015;SDS011;8112;53.592;10.184;2023-04-26T21:28:10;6.77;;;2.80;;
16015;SDS011;8112;53.592;10.184;2023-04-26T21:33:12;4.40;;;2.77;;
16015;SDS011;8112;53.592;10.184;2023-04-26T21:38:17;4.53;;;2.30;;
16015;SDS011;8112;53.592;10.184;2023-04-26T21:43:19;2.63;;;2.10;;
16015;SDS011;8112;53.592;10.184;2023-04-26T21:48:21;4.27;;;2.47;;
16015;SDS011;8112;53.592;10.184;2023-04-26T21:53:24;3.40;;;2.20;;
16015;SDS011;8112;53.592;10.184;2023-04-26T21:58:26;8.37;;;2.50;;
16015;SDS011;8112;53.592;10.184;2023-04-26T22:03:29;8.73;;;2.90;;
16015;SDS011;8112;53.592;10.184;2023-04-26T22:08:33;6.67;;;3.17;;
16015;SDS011;8112;53.592;10.184;2023-04-26T22:13:35;5.47;;;2.87;;
16015;SDS011;8112;53.592;10.184;2023-04-26T22:18:37;7.07;;;3.13;;
16015;SDS011;8112;53.592;10.184;2023-04-26T22:23:41;4.47;;;2.67;;
16015;SDS011;8112;53.592;10.184;2023-04-26T22:28:43;4.43;;;2.60;;
16015;SDS011;8112;53.592;10.184;2023-04-26T22:33:44;2.87;;;2.30;;
16015;SDS011;8112;53.592;10.184;2023-04-26T22:38:49;3.30;;;2.33;;
16015;SDS011;8112;53.592;10.184;2023-04-26T22:43:53;3.73;;;2.70;;
16015;SDS011;8112;53.592;10.184;2023-04-26T22:48:55;3.97;;;2.20;;
16015;SDS011;8112;53.592;10.184;2023-04-26T22:53:58;3.63;;;2.63;;
16015;SDS011;8112;53.592;10.184;2023-04-26T22:59:00;5.20;;;2.60;;
16015;SDS011;8112;53.592;10.184;2023-04-26T23:04:03;3.60;;;2.40;;
16015;SDS011;8112;53.592;10.184;2023-04-26T23:09:07;3.73;;;3.20;;
16015;SDS011;8112;53.592;10.184;2023-04-26T23:14:08;3.97;;;2.87;;
16015;SDS011;8112;53.592;10.184;2023-04-26T23:19:10;8.60;;;2.63;;
16015;SDS011;8112;53.592;10.184;2023-04-26T23:24:14;4.67;;;2.67;;
16015;SDS011;8112;53.592;10.184;2023-04-26T23:29:16;4.93;;;2.97;;
16015;SDS011;8112;53.592;10.184;2023-04-26T23:34:17;4.90;;;3.50;;
16015;SDS011;8112;53.592;10.184;2023-04-26T23:39:20;6.37;;;2.60;;
16015;SDS011;8112;53.592;10.184;2023-04-26T23:44:22;6.07;;;3.07;;
16015;SDS011;8112;53.592;10.184;2023-04-26T23:49:23;7.67;;;3.13;;
16015;SDS011;8112;53.592;10.184;2023-04-26T23:54:26;4.10;;;2.80;;
16015;SDS011;8112;53.592;10.184;2023-04-26T23:59:28;5.70;;;3.53;;
